createdAt,value
2022-08-09T00:00:44.452Z,2.30
2022-08-09T00:01:52.708Z,2.70
2022-08-09T00:02:42.811Z,2.10
2022-08-09T00:04:10.140Z,2.30
2022-08-09T00:04:42.683Z,2.10
2022-08-09T00:06:17.501Z,2.40
2022-08-09T00:06:44.309Z,2.10
2022-08-09T00:07:44.907Z,2.00
2022-08-09T00:08:42.740Z,2.00
2022-08-09T00:09:42.752Z,2.40
2022-08-09T00:10:43.788Z,2.70
2022-08-09T00:12:02.757Z,2.50
2022-08-09T00:12:42.802Z,2.40
2022-08-09T00:13:42.809Z,2.30
2022-08-09T00:14:42.821Z,2.20
2022-08-09T00:15:59.618Z,2.70
2022-08-09T00:16:42.847Z,2.30
2022-08-09T00:18:06.134Z,2.60
2022-08-09T00:18:42.876Z,2.70
2022-08-09T00:19:42.888Z,2.60
2022-08-09T00:20:49.842Z,2.30
2022-08-09T00:21:55.456Z,2.30
2022-08-09T00:22:42.930Z,2.30
2022-08-09T00:23:57.368Z,2.10
2022-08-09T00:24:42.956Z,2.90
2022-08-09T00:25:42.971Z,2.20
2022-08-09T00:26:42.983Z,2.30
2022-08-09T00:27:43.423Z,2.60
2022-08-09T00:28:52.394Z,2.00
2022-08-09T00:30:23.626Z,2.60
2022-08-09T00:30:43.055Z,2.20
2022-08-09T00:31:58.459Z,2.10
2022-08-09T00:32:43.066Z,2.20
2022-08-09T00:33:50.804Z,2.30
2022-08-09T00:34:52.035Z,2.10
2022-08-09T00:35:43.774Z,2.00
2022-08-09T00:36:43.123Z,2.50
2022-08-09T00:37:43.134Z,2.50
2022-08-09T00:38:43.152Z,2.00
2022-08-09T00:40:13.493Z,2.00
2022-08-09T00:40:52.396Z,2.20
2022-08-09T00:44:11.268Z,2.00
2022-08-09T00:44:13.226Z,2.40
2022-08-09T00:44:15.386Z,2.20
2022-08-09T00:44:43.231Z,2.10
2022-08-09T00:45:50.759Z,2.30
2022-08-09T00:46:55.803Z,2.10
2022-08-09T00:47:43.338Z,2.10
2022-08-09T00:48:43.285Z,2.20
2022-08-09T00:49:43.796Z,2.10
2022-08-09T00:50:43.316Z,2.20
2022-08-09T00:51:56.057Z,2.20
2022-08-09T00:52:43.342Z,2.40
2022-08-09T00:53:43.355Z,2.40
2022-08-09T00:54:43.368Z,2.40
2022-08-09T00:56:03.832Z,2.20
2022-08-09T00:56:43.394Z,1.80
2022-08-09T00:57:43.409Z,2.10
2022-08-09T00:58:43.423Z,2.40
2022-08-09T00:59:46.725Z,2.00
2022-08-09T01:00:43.451Z,2.60
2022-08-09T01:01:44.976Z,2.20
2022-08-09T01:02:43.477Z,2.10
2022-08-09T01:03:46.590Z,2.00
2022-08-09T01:04:44.045Z,2.20
2022-08-09T01:05:53.259Z,2.30
2022-08-09T01:06:54.820Z,2.10
2022-08-09T01:08:00.492Z,1.90
2022-08-09T01:08:48.826Z,1.90
2022-08-09T01:09:43.572Z,1.90
2022-08-09T01:10:43.586Z,2.90
2022-08-09T01:11:53.320Z,2.30
2022-08-09T01:12:43.614Z,1.90
2022-08-09T01:13:59.015Z,1.80
2022-08-09T01:14:43.641Z,2.50
2022-08-09T01:15:52.492Z,1.90
2022-08-09T01:16:47.393Z,2.50
2022-08-09T01:17:43.683Z,1.90
2022-08-09T01:18:47.493Z,1.90
2022-08-09T01:20:01.653Z,2.20
2022-08-09T01:20:43.722Z,2.30
2022-08-09T01:21:45.102Z,2.30
2022-08-09T01:22:43.748Z,2.70
2022-08-09T01:24:02.294Z,2.20
2022-08-09T01:24:44.080Z,1.80
2022-08-09T01:25:49.030Z,2.20
2022-08-09T01:26:43.804Z,1.90
2022-08-09T01:27:44.169Z,2.00
2022-08-09T01:28:43.830Z,1.80
2022-08-09T01:29:55.730Z,1.80
2022-08-09T01:30:52.661Z,1.60
2022-08-09T01:32:32.232Z,2.30
2022-08-09T01:32:46.015Z,2.00
2022-08-09T01:33:43.899Z,1.60
2022-08-09T01:34:43.914Z,1.80
2022-08-09T01:35:43.925Z,2.30
2022-08-09T01:36:43.939Z,2.00
2022-08-09T01:38:08.106Z,1.70
2022-08-09T01:38:44.307Z,1.90
2022-08-09T01:39:44.050Z,1.90
2022-08-09T01:40:43.997Z,1.70
2022-08-09T01:41:55.579Z,1.70
2022-08-09T01:42:44.021Z,1.70
2022-08-09T01:43:50.453Z,1.70
2022-08-09T01:44:44.051Z,1.90
2022-08-09T01:45:46.021Z,1.80
2022-08-09T01:46:47.160Z,1.90
2022-08-09T01:47:44.875Z,1.60
2022-08-09T01:48:44.102Z,1.80
2022-08-09T01:49:50.767Z,1.70
2022-08-09T01:50:48.091Z,1.60
2022-08-09T01:51:44.603Z,1.70
2022-08-09T01:52:44.158Z,1.80
2022-08-09T01:53:44.170Z,1.50
2022-08-09T01:54:44.184Z,1.80
2022-08-09T01:55:44.198Z,2.10
2022-08-09T01:56:47.202Z,2.50
2022-08-09T01:57:45.996Z,1.60
2022-08-09T01:58:44.239Z,1.50
2022-08-09T01:59:51.467Z,1.70
2022-08-09T02:00:46.322Z,1.80
2022-08-09T02:01:59.064Z,1.50
2022-08-09T02:02:44.291Z,1.40
2022-08-09T02:03:44.307Z,1.50
2022-08-09T02:04:45.788Z,1.80
2022-08-09T02:06:06.485Z,1.50
2022-08-09T02:06:45.334Z,2.00
2022-08-09T02:08:40.763Z,1.50
2022-08-09T02:08:58.962Z,1.40
2022-08-09T02:09:44.403Z,1.60
2022-08-09T02:10:51.305Z,1.50
2022-08-09T02:11:44.434Z,2.30
2022-08-09T02:12:44.429Z,2.60
2022-08-09T02:13:55.240Z,1.40
2022-08-09T02:14:44.457Z,1.80
2022-08-09T02:15:49.247Z,1.50
2022-08-09T02:16:59.873Z,1.30
2022-08-09T02:17:59.297Z,1.50
2022-08-09T02:18:47.773Z,1.50
2022-08-09T02:19:44.527Z,1.80
2022-08-09T02:20:44.536Z,1.80
2022-08-09T02:21:44.550Z,1.70
2022-08-09T02:22:46.455Z,1.50
2022-08-09T02:23:44.576Z,1.40
2022-08-09T02:24:51.617Z,2.10
2022-08-09T02:25:55.587Z,1.60
2022-08-09T02:26:44.618Z,1.50
2022-08-09T02:28:00.445Z,1.70
2022-08-09T02:28:44.644Z,1.40
2022-08-09T02:29:44.859Z,1.60
2022-08-09T02:30:44.672Z,1.30
2022-08-09T02:31:44.686Z,1.50
2022-08-09T02:32:44.732Z,1.50
2022-08-09T02:34:06.710Z,1.40
2022-08-09T02:34:55.506Z,1.50
2022-08-09T02:36:01.186Z,1.30
2022-08-09T02:36:44.751Z,1.40
2022-08-09T02:37:45.398Z,1.30
2022-08-09T02:38:47.822Z,1.30
2022-08-09T02:39:45.385Z,1.30
2022-08-09T02:40:44.869Z,1.40
2022-08-09T02:41:44.822Z,1.60
2022-08-09T02:42:44.835Z,1.20
2022-08-09T02:43:54.596Z,1.30
2022-08-09T02:44:44.860Z,1.20
2022-08-09T02:45:44.874Z,1.40
2022-08-09T02:46:44.887Z,1.40
2022-08-09T02:47:46.291Z,1.50
2022-08-09T02:48:46.111Z,1.20
2022-08-09T02:49:44.927Z,1.40
2022-08-09T02:50:44.943Z,1.20
2022-08-09T02:51:44.956Z,1.40
2022-08-09T02:52:44.968Z,1.20
2022-08-09T02:53:53.012Z,1.50
2022-08-09T02:54:54.036Z,1.30
2022-08-09T02:55:53.644Z,1.40
2022-08-09T02:56:51.039Z,1.20
2022-08-09T02:58:32.830Z,1.60
2022-08-09T02:58:45.630Z,1.70
2022-08-09T03:00:20.739Z,1.20
2022-08-09T03:00:58.175Z,1.00
2022-08-09T03:02:06.328Z,1.00
2022-08-09T03:02:58.333Z,1.30
2022-08-09T03:04:18.052Z,1.20
2022-08-09T03:04:45.165Z,1.50
2022-08-09T03:05:45.143Z,1.90
2022-08-09T03:06:45.362Z,1.20
2022-08-09T03:07:54.979Z,1.30
2022-08-09T03:08:45.192Z,1.20
2022-08-09T03:09:56.372Z,1.30
2022-08-09T03:10:45.213Z,1.30
2022-08-09T03:12:09.906Z,1.30
2022-08-09T03:12:49.349Z,1.10
2022-08-09T03:13:59.631Z,1.10
2022-08-09T03:14:45.699Z,1.20
2022-08-09T03:16:06.826Z,1.80
2022-08-09T03:16:47.683Z,1.10
2022-08-09T03:17:45.305Z,1.30
2022-08-09T03:18:45.329Z,1.10
2022-08-09T03:19:58.439Z,1.40
2022-08-09T03:20:45.347Z,2.00
2022-08-09T03:21:48.567Z,1.10
2022-08-09T03:22:45.592Z,0.90
2022-08-09T03:24:04.099Z,0.70
2022-08-09T03:24:52.326Z,1.10
2022-08-09T03:25:57.994Z,1.20
2022-08-09T03:26:47.208Z,1.20
2022-08-09T03:27:45.943Z,0.90
2022-08-09T03:28:45.553Z,1.00
2022-08-09T03:29:57.397Z,1.00
2022-08-09T03:30:45.482Z,1.20
2022-08-09T03:31:59.704Z,1.00
2022-08-09T03:32:45.704Z,1.00
2022-08-09T03:33:54.932Z,1.20
2022-08-09T03:34:45.534Z,1.10
2022-08-09T03:36:13.034Z,1.10
2022-08-09T03:36:48.058Z,1.20
2022-08-09T03:37:55.673Z,1.20
2022-08-09T03:38:45.587Z,1.10
2022-08-09T03:39:48.559Z,1.30
2022-08-09T03:40:45.615Z,0.80
2022-08-09T03:41:48.340Z,1.10
2022-08-09T03:42:45.644Z,1.20
2022-08-09T03:44:03.624Z,1.40
2022-08-09T03:44:45.668Z,0.90
2022-08-09T03:46:05.089Z,1.00
2022-08-09T03:46:46.445Z,1.10
2022-08-09T03:47:46.813Z,1.00
2022-08-09T03:48:51.839Z,1.00
2022-08-09T03:49:58.446Z,0.80
2022-08-09T03:50:45.750Z,1.50
2022-08-09T03:51:58.489Z,0.70
2022-08-09T03:52:46.072Z,1.00
2022-08-09T03:53:45.836Z,1.30
2022-08-09T03:54:45.804Z,1.10
2022-08-09T03:55:45.827Z,1.20
2022-08-09T03:56:46.596Z,1.10
2022-08-09T03:57:57.596Z,1.20
2022-08-09T03:58:46.017Z,1.50
2022-08-09T03:59:53.347Z,0.80
2022-08-09T04:00:45.927Z,1.10
2022-08-09T04:01:45.896Z,1.40
2022-08-09T04:02:45.921Z,1.10
2022-08-09T04:04:01.403Z,1.10
2022-08-09T04:04:46.226Z,1.10
2022-08-09T04:05:45.952Z,1.20
2022-08-09T04:06:49.124Z,1.20
2022-08-09T04:07:52.357Z,1.10
2022-08-09T04:08:46.556Z,1.30
2022-08-09T04:09:49.888Z,1.20
2022-08-09T04:10:49.699Z,1.20
2022-08-09T04:11:46.032Z,1.50
2022-08-09T04:12:46.381Z,1.10
2022-08-09T04:14:53.999Z,1.10
2022-08-09T04:15:00.916Z,1.30
2022-08-09T04:16:18.265Z,1.30
2022-08-09T04:16:46.099Z,1.20
2022-08-09T04:17:47.397Z,1.10
2022-08-09T04:18:46.124Z,1.20
2022-08-09T04:19:51.456Z,1.60
2022-08-09T04:20:46.160Z,1.70
2022-08-09T04:21:46.165Z,1.20
2022-08-09T04:22:46.181Z,1.70
2022-08-09T04:23:54.473Z,2.40
2022-08-09T04:24:46.205Z,1.10
2022-08-09T04:25:51.620Z,1.30
2022-08-09T04:26:46.233Z,1.40
2022-08-09T04:27:48.912Z,1.40
2022-08-09T04:28:47.001Z,1.30
2022-08-09T04:29:49.835Z,1.50
2022-08-09T04:30:46.287Z,1.50
2022-08-09T04:31:47.188Z,1.20
2022-08-09T04:32:46.855Z,1.30
2022-08-09T04:33:52.497Z,1.20
2022-08-09T04:34:47.696Z,1.50
2022-08-09T04:35:46.354Z,1.10
2022-08-09T04:36:50.460Z,1.50
2022-08-09T04:37:46.833Z,1.10
2022-08-09T04:38:46.394Z,1.60
2022-08-09T04:39:49.453Z,1.20
2022-08-09T04:40:46.419Z,1.70
2022-08-09T04:41:46.433Z,1.10
2022-08-09T04:42:48.485Z,1.10
2022-08-09T04:44:05.931Z,1.10
2022-08-09T04:44:49.257Z,1.40
2022-08-09T04:45:53.530Z,1.30
2022-08-09T04:46:57.172Z,1.70
2022-08-09T04:48:00.146Z,1.20
2022-08-09T04:48:57.457Z,1.70
2022-08-09T04:49:55.020Z,1.30
2022-08-09T04:50:46.573Z,1.40
2022-08-09T04:51:46.567Z,1.40
2022-08-09T04:52:46.579Z,1.30
2022-08-09T04:53:48.378Z,1.20
2022-08-09T04:54:46.606Z,1.30
2022-08-09T04:55:58.413Z,0.90
2022-08-09T04:56:46.632Z,1.20
2022-08-09T04:57:58.642Z,1.30
2022-08-09T04:58:46.661Z,1.40
2022-08-09T04:59:47.504Z,1.20
2022-08-09T05:00:46.686Z,1.00
2022-08-09T05:01:46.699Z,1.40
2022-08-09T05:02:51.743Z,1.10
2022-08-09T05:03:46.805Z,1.10
2022-08-09T05:04:47.392Z,1.00
2022-08-09T05:05:51.807Z,0.90
2022-08-09T05:06:46.767Z,1.10
2022-08-09T05:07:46.779Z,1.40
2022-08-09T05:08:47.775Z,1.30
2022-08-09T05:09:49.745Z,1.20
2022-08-09T05:10:46.822Z,1.10
2022-08-09T05:11:46.833Z,1.30
2022-08-09T05:12:46.847Z,1.10
2022-08-09T05:13:46.859Z,2.20
2022-08-09T05:14:46.873Z,0.90
2022-08-09T05:15:48.015Z,1.30
2022-08-09T05:16:58.975Z,1.20
2022-08-09T05:18:38.009Z,1.20
2022-08-09T05:18:58.256Z,1.30
2022-08-09T05:19:46.940Z,1.20
2022-08-09T05:20:46.953Z,1.00
2022-08-09T05:21:55.297Z,0.90
2022-08-09T05:23:54.182Z,1.70
2022-08-09T05:23:54.941Z,0.90
2022-08-09T05:24:47.644Z,1.20
2022-08-09T05:25:50.910Z,1.00
2022-08-09T05:26:47.772Z,1.50
2022-08-09T05:27:48.059Z,0.80
2022-08-09T05:28:47.059Z,1.20
2022-08-09T05:29:47.074Z,1.10
2022-08-09T05:30:47.775Z,0.90
2022-08-09T05:31:56.414Z,1.00
2022-08-09T05:32:50.933Z,1.00
2022-08-09T05:33:47.127Z,0.80
2022-08-09T05:34:47.140Z,0.80
2022-08-09T05:35:50.025Z,1.00
2022-08-09T05:36:47.561Z,1.20
2022-08-09T05:37:50.012Z,1.00
2022-08-09T05:38:47.195Z,1.00
2022-08-09T05:39:47.258Z,0.80
2022-08-09T05:40:50.581Z,1.00
2022-08-09T05:41:47.233Z,1.00
2022-08-09T05:42:47.248Z,1.10
2022-08-09T05:43:49.492Z,0.80
2022-08-09T05:44:47.684Z,0.80
2022-08-09T05:45:56.626Z,1.00
2022-08-09T05:46:47.300Z,2.00
2022-08-09T05:47:53.052Z,1.00
2022-08-09T05:48:58.471Z,0.90
2022-08-09T05:50:30.447Z,0.80
2022-08-09T05:50:51.181Z,0.80
2022-08-09T05:51:47.370Z,0.80
2022-08-09T05:52:53.339Z,0.80
2022-08-09T05:53:56.616Z,0.80
2022-08-09T05:54:49.132Z,0.60
2022-08-09T05:55:47.419Z,0.90
2022-08-09T05:56:54.401Z,0.90
2022-08-09T05:57:55.459Z,1.00
2022-08-09T05:58:47.460Z,1.40
2022-08-09T05:59:47.474Z,0.80
2022-08-09T06:00:47.486Z,1.10
2022-08-09T06:01:47.499Z,0.80
2022-08-09T06:02:47.576Z,0.80
2022-08-09T06:03:58.133Z,0.70
2022-08-09T06:04:47.537Z,0.70
2022-08-09T06:05:57.100Z,0.90
2022-08-09T06:06:50.085Z,1.00
2022-08-09T06:08:05.510Z,0.70
2022-08-09T06:08:52.821Z,1.00
2022-08-09T06:09:54.857Z,0.90
2022-08-09T06:10:47.619Z,0.90
2022-08-09T06:11:57.330Z,0.70
2022-08-09T06:12:50.551Z,0.80
2022-08-09T06:13:47.693Z,0.70
2022-08-09T06:14:47.673Z,0.60
2022-08-09T06:15:47.686Z,0.90
2022-08-09T06:16:52.077Z,1.00
2022-08-09T06:17:47.710Z,0.70
2022-08-09T06:18:47.725Z,0.70
2022-08-09T06:19:47.737Z,1.10
2022-08-09T06:20:54.378Z,0.80
2022-08-09T06:21:51.438Z,1.00
2022-08-09T06:22:47.775Z,0.90
2022-08-09T06:23:58.983Z,0.70
2022-08-09T06:24:47.805Z,1.10
2022-08-09T06:25:48.754Z,1.00
2022-08-09T06:26:47.830Z,0.80
2022-08-09T06:27:51.386Z,0.80
2022-08-09T06:28:47.865Z,0.80
2022-08-09T06:30:04.498Z,0.80
2022-08-09T06:30:47.886Z,0.80
2022-08-09T06:32:24.673Z,0.70
2022-08-09T06:32:58.926Z,0.80
2022-08-09T06:33:47.923Z,1.40
2022-08-09T06:34:52.606Z,0.80
2022-08-09T06:35:57.123Z,1.00
2022-08-09T06:36:47.963Z,0.80
2022-08-09T06:37:49.821Z,0.60
2022-08-09T06:38:50.258Z,0.90
2022-08-09T06:39:57.692Z,1.00
2022-08-09T06:40:48.105Z,0.80
2022-08-09T06:42:09.027Z,0.60
2022-08-09T06:42:48.043Z,1.20
2022-08-09T06:43:48.082Z,0.90
2022-08-09T06:44:54.191Z,0.80
2022-08-09T06:46:06.556Z,1.70
2022-08-09T06:46:48.097Z,0.80
2022-08-09T06:47:48.110Z,0.60
2022-08-09T06:48:48.121Z,1.00
2022-08-09T06:50:14.606Z,1.00
2022-08-09T06:50:48.149Z,0.80
2022-08-09T06:51:48.160Z,0.70
2022-08-09T06:52:48.524Z,0.70
2022-08-09T06:53:49.933Z,0.70
2022-08-09T06:54:48.203Z,0.60
2022-08-09T06:55:48.446Z,0.90
2022-08-09T06:56:48.230Z,0.70
2022-08-09T06:58:03.198Z,0.60
2022-08-09T07:00:48.643Z,0.90
2022-08-09T07:00:50.384Z,0.60
2022-08-09T07:00:58.646Z,0.80
2022-08-09T07:01:54.787Z,0.80
2022-08-09T07:02:48.353Z,0.70
2022-08-09T07:03:52.160Z,0.70
2022-08-09T07:04:48.334Z,1.10
2022-08-09T07:05:53.805Z,0.60
2022-08-09T07:06:48.363Z,0.60
2022-08-09T07:08:00.361Z,0.90
2022-08-09T07:08:49.596Z,0.90
2022-08-09T07:09:54.234Z,0.70
2022-08-09T07:10:48.415Z,0.60
2022-08-09T07:11:53.451Z,1.00
2022-08-09T07:12:57.479Z,1.00
2022-08-09T07:14:05.092Z,0.60
2022-08-09T07:14:51.219Z,0.90
2022-08-09T07:16:35.204Z,0.80
2022-08-09T07:16:55.379Z,1.00
2022-08-09T07:17:56.266Z,0.70
2022-08-09T07:18:50.062Z,0.50
2022-08-09T07:19:50.793Z,0.60
2022-08-09T07:20:48.545Z,1.10
2022-08-09T07:21:55.935Z,0.80
2022-08-09T07:22:53.203Z,0.70
2022-08-09T07:23:57.810Z,0.70
2022-08-09T07:24:49.489Z,0.50
2022-08-09T07:25:52.343Z,0.70
2022-08-09T07:26:50.920Z,0.60
2022-08-09T07:27:53.273Z,0.60
2022-08-09T07:29:08.257Z,0.60
2022-08-09T07:29:48.665Z,0.70
2022-08-09T07:30:48.679Z,1.00
2022-08-09T07:31:48.690Z,0.60
2022-08-09T07:32:48.704Z,0.60
2022-08-09T07:33:53.057Z,0.60
2022-08-09T07:34:48.732Z,0.60
2022-08-09T07:35:53.937Z,0.70
2022-08-09T07:36:48.757Z,1.20
2022-08-09T07:37:49.335Z,0.50
2022-08-09T07:38:56.849Z,0.60
2022-08-09T07:39:48.868Z,0.60
2022-08-09T07:40:54.130Z,0.70
2022-08-09T07:41:48.822Z,0.50
2022-08-09T07:42:48.837Z,0.80
2022-08-09T07:43:55.961Z,0.80
2022-08-09T07:44:51.719Z,1.00
2022-08-09T07:45:48.876Z,1.10
2022-08-09T07:46:48.888Z,0.80
2022-08-09T07:48:00.723Z,0.60
2022-08-09T07:48:59.074Z,0.50
2022-08-09T07:50:04.431Z,0.80
2022-08-09T07:50:52.828Z,0.90
2022-08-09T07:52:05.214Z,0.50
2022-08-09T07:52:48.968Z,1.00
2022-08-09T07:54:05.780Z,0.80
2022-08-09T07:54:51.415Z,1.10
2022-08-09T07:56:03.441Z,0.60
2022-08-09T07:56:50.141Z,0.80
2022-08-09T07:57:49.032Z,0.90
2022-08-09T07:58:49.047Z,0.90
2022-08-09T07:59:52.296Z,0.50
2022-08-09T08:00:56.078Z,0.90
2022-08-09T08:01:53.165Z,0.70
2022-08-09T08:02:49.101Z,0.90
2022-08-09T08:03:49.113Z,0.80
2022-08-09T08:04:49.399Z,0.80
2022-08-09T08:05:57.587Z,1.20
2022-08-09T08:06:56.198Z,0.90
2022-08-09T08:08:43.837Z,1.00
2022-08-09T08:09:04.571Z,0.80
2022-08-09T08:10:07.704Z,0.70
2022-08-09T08:12:07.942Z,0.80
2022-08-09T08:12:10.017Z,0.80
2022-08-09T08:12:49.235Z,0.80
2022-08-09T08:13:56.323Z,0.90
2022-08-09T08:14:49.258Z,1.30
2022-08-09T08:15:49.273Z,1.40
2022-08-09T08:17:00.576Z,0.70
2022-08-09T08:17:54.579Z,0.70
2022-08-09T08:18:49.309Z,0.60
2022-08-09T08:19:49.326Z,0.80
2022-08-09T08:20:49.339Z,0.80
2022-08-09T08:21:50.873Z,0.70
2022-08-09T08:22:49.362Z,0.70
2022-08-09T08:23:55.777Z,0.60
2022-08-09T08:24:49.389Z,0.60
2022-08-09T08:25:50.188Z,0.60
2022-08-09T08:26:55.538Z,0.70
2022-08-09T08:27:49.850Z,0.90
2022-08-09T08:28:49.441Z,1.10
2022-08-09T08:29:50.336Z,1.30
2022-08-09T08:30:49.470Z,0.80
2022-08-09T08:32:04.047Z,0.80
2022-08-09T08:32:52.734Z,0.90
2022-08-09T08:33:53.882Z,0.80
2022-08-09T08:34:51.984Z,0.60
2022-08-09T08:35:58.598Z,0.90
2022-08-09T08:36:49.548Z,0.80
2022-08-09T08:37:59.846Z,0.80
2022-08-09T08:38:49.574Z,0.60
2022-08-09T08:39:49.713Z,0.80
2022-08-09T08:40:49.744Z,0.60
2022-08-09T08:41:51.749Z,0.80
2022-08-09T08:42:49.626Z,1.00
2022-08-09T08:43:49.645Z,0.70
2022-08-09T08:44:49.654Z,0.90
2022-08-09T08:45:51.556Z,0.80
2022-08-09T08:46:59.825Z,0.70
2022-08-09T08:47:49.696Z,0.80
2022-08-09T08:48:51.804Z,1.00
2022-08-09T08:49:49.720Z,0.80
2022-08-09T08:50:51.996Z,1.00
2022-08-09T08:52:01.626Z,0.90
2022-08-09T08:52:58.450Z,0.90
2022-08-09T08:54:04.426Z,2.00
2022-08-09T08:54:49.786Z,0.90
2022-08-09T08:55:52.587Z,1.20
2022-08-09T08:56:49.809Z,1.20
2022-08-09T08:57:56.864Z,1.30
2022-08-09T08:58:49.839Z,1.30
2022-08-09T08:59:53.973Z,0.90
2022-08-09T09:00:56.215Z,1.70
2022-08-09T09:01:52.689Z,1.00
2022-08-09T09:02:52.534Z,1.30
2022-08-09T09:03:50.577Z,1.30
2022-08-09T09:04:53.118Z,1.10
2022-08-09T09:06:03.072Z,1.40
2022-08-09T09:06:49.942Z,1.10
2022-08-09T09:07:49.956Z,1.00
2022-08-09T09:08:52.822Z,1.20
2022-08-09T09:10:01.790Z,1.00
2022-08-09T09:10:49.996Z,1.50
2022-08-09T09:11:50.008Z,1.20
2022-08-09T09:12:50.025Z,1.20
2022-08-09T09:13:56.620Z,1.30
2022-08-09T09:14:50.047Z,1.30
2022-08-09T09:15:50.061Z,1.00
2022-08-09T09:16:50.075Z,1.20
2022-08-09T09:17:52.972Z,1.30
2022-08-09T09:18:58.164Z,1.00
2022-08-09T09:19:50.116Z,1.20
2022-08-09T09:20:50.126Z,1.30
2022-08-09T09:21:50.141Z,1.50
2022-08-09T09:22:50.154Z,1.60
2022-08-09T09:23:58.464Z,1.80
2022-08-09T09:24:50.177Z,1.70
2022-08-09T09:26:03.355Z,1.40
2022-08-09T09:26:50.206Z,2.10
2022-08-09T09:28:06.740Z,1.80
2022-08-09T09:29:04.099Z,1.40
2022-08-09T09:30:50.257Z,2.30
2022-08-09T09:32:04.623Z,1.50
2022-08-09T09:32:50.284Z,1.40
2022-08-09T09:33:56.752Z,1.50
2022-08-09T09:34:50.313Z,1.40
2022-08-09T09:36:00.771Z,1.60
2022-08-09T09:36:53.873Z,1.70
2022-08-09T09:37:50.350Z,2.00
2022-08-09T09:38:50.367Z,1.60
2022-08-09T09:39:56.715Z,2.70
2022-08-09T09:40:50.387Z,1.50
2022-08-09T09:41:50.956Z,1.60
2022-08-09T09:42:50.421Z,1.50
2022-08-09T09:44:10.578Z,1.70
2022-08-09T09:44:50.439Z,1.90
2022-08-09T09:46:39.075Z,1.30
2022-08-09T09:46:52.130Z,1.90
2022-08-09T09:47:58.713Z,1.40
2022-08-09T09:48:50.496Z,2.20
2022-08-09T09:50:13.865Z,2.10
2022-08-09T09:50:51.531Z,2.10
2022-08-09T09:51:51.379Z,1.50
2022-08-09T09:52:53.474Z,1.50
2022-08-09T09:54:01.301Z,1.90
2022-08-09T09:54:55.234Z,1.40
2022-08-09T09:56:04.387Z,1.70
2022-08-09T09:58:01.239Z,1.60
2022-08-09T09:58:01.455Z,2.10
2022-08-09T09:58:50.624Z,2.00
2022-08-09T09:59:52.135Z,1.50
2022-08-09T10:00:54.321Z,1.60
2022-08-09T10:01:50.663Z,2.50
2022-08-09T10:02:50.677Z,1.80
2022-08-09T10:03:57.353Z,2.20
2022-08-09T10:04:50.704Z,1.80
2022-08-09T10:06:00.685Z,1.60
2022-08-09T10:06:51.994Z,1.90
2022-08-09T10:08:10.705Z,1.90
2022-08-09T10:08:55.069Z,2.30
2022-08-09T10:09:54.834Z,2.30
2022-08-09T10:10:50.783Z,1.90
2022-08-09T10:12:00.815Z,2.00
2022-08-09T10:12:51.895Z,2.20
2022-08-09T10:13:50.822Z,1.60
2022-08-09T10:14:51.709Z,1.70
2022-08-09T10:16:54.983Z,1.60
2022-08-09T10:16:57.934Z,2.00
2022-08-09T10:17:56.918Z,1.50
2022-08-09T10:18:51.360Z,1.70
2022-08-09T10:19:53.063Z,1.70
2022-08-09T10:20:50.910Z,2.70
2022-08-09T10:21:50.925Z,2.30
2022-08-09T10:22:50.950Z,1.80
2022-08-09T10:23:51.182Z,1.70
2022-08-09T10:24:50.963Z,2.50
2022-08-09T10:26:06.686Z,2.30
2022-08-09T10:26:50.989Z,1.90
2022-08-09T10:27:57.786Z,1.70
2022-08-09T10:29:37.591Z,2.20
2022-08-09T10:30:43.824Z,2.10
2022-08-09T10:32:51.431Z,1.80
2022-08-09T10:34:10.473Z,2.30
2022-08-09T10:34:51.096Z,2.20
2022-08-09T10:35:51.108Z,2.80
2022-08-09T10:36:51.120Z,1.90
2022-08-09T10:37:51.803Z,2.00
2022-08-09T10:38:57.085Z,2.10
2022-08-09T10:39:51.253Z,2.50
2022-08-09T10:40:51.242Z,2.10
2022-08-09T10:41:51.186Z,1.90
2022-08-09T10:42:53.155Z,2.00
2022-08-09T10:43:59.512Z,1.90
2022-08-09T10:44:51.224Z,3.40
2022-08-09T10:45:59.779Z,2.10
2022-08-09T10:47:00.919Z,2.50
2022-08-09T10:48:19.275Z,2.50
2022-08-09T10:48:52.301Z,2.10
2022-08-09T10:49:54.331Z,2.10
2022-08-09T10:50:51.305Z,2.00
2022-08-09T10:51:52.956Z,2.50
2022-08-09T10:52:51.333Z,2.50
2022-08-09T10:53:54.328Z,2.10
2022-08-09T10:54:53.270Z,1.90
2022-08-09T10:55:58.749Z,1.90
2022-08-09T10:56:51.382Z,2.10
2022-08-09T10:57:51.803Z,2.70
2022-08-09T10:58:51.415Z,1.60
2022-08-09T10:59:57.323Z,2.20
2022-08-09T11:03:02.461Z,1.90
2022-08-09T11:03:11.527Z,2.30
2022-08-09T11:03:15.455Z,2.40
2022-08-09T11:03:53.839Z,2.50
2022-08-09T11:04:56.103Z,2.10
2022-08-09T11:06:00.037Z,2.30
2022-08-09T11:06:51.513Z,2.60
2022-08-09T11:07:55.760Z,2.20
2022-08-09T11:08:53.058Z,2.20
2022-08-09T11:09:52.468Z,2.00
2022-08-09T11:10:54.674Z,2.50
2022-08-09T11:11:51.845Z,2.30
2022-08-09T11:12:51.589Z,2.70
2022-08-09T11:13:54.751Z,2.30
2022-08-09T11:14:51.617Z,2.00
2022-08-09T11:16:04.773Z,2.70
2022-08-09T11:16:51.641Z,2.90
2022-08-09T11:17:56.783Z,2.40
2022-08-09T11:18:51.667Z,2.20
2022-08-09T11:20:11.228Z,2.10
2022-08-09T11:20:51.694Z,2.20
2022-08-09T11:21:57.507Z,2.50
2022-08-09T11:22:56.631Z,2.00
2022-08-09T11:23:51.735Z,3.10
2022-08-09T11:24:51.747Z,2.80
2022-08-09T11:25:54.703Z,2.60
2022-08-09T11:26:52.185Z,2.10
2022-08-09T11:28:05.485Z,2.40
2022-08-09T11:28:56.321Z,2.30
2022-08-09T11:30:05.023Z,2.00
2022-08-09T11:30:51.826Z,2.90
2022-08-09T11:31:52.999Z,2.90
2022-08-09T11:32:51.849Z,3.10
2022-08-09T11:33:51.865Z,2.30
2022-08-09T11:34:51.878Z,2.30
2022-08-09T11:35:52.197Z,2.40
2022-08-09T11:36:51.905Z,2.60
2022-08-09T11:37:51.974Z,2.80
2022-08-09T11:38:51.929Z,2.00
2022-08-09T11:39:52.010Z,2.50
2022-08-09T11:40:54.890Z,2.80
2022-08-09T11:41:54.667Z,3.30
2022-08-09T11:42:52.050Z,3.80
2022-08-09T11:43:51.997Z,2.50
2022-08-09T11:44:52.006Z,2.30
2022-08-09T11:45:52.023Z,3.70
2022-08-09T11:46:52.033Z,2.00
2022-08-09T11:47:52.049Z,2.40
2022-08-09T11:48:52.060Z,2.50
2022-08-09T11:50:54.378Z,4.80
2022-08-09T11:50:55.103Z,2.30
2022-08-09T11:52:59.206Z,1.90
2022-08-09T11:53:03.586Z,3.50
2022-08-09T11:53:58.623Z,1.90
2022-08-09T11:54:52.139Z,2.20
2022-08-09T11:56:02.352Z,2.40
2022-08-09T11:56:52.166Z,3.20
2022-08-09T11:58:02.056Z,2.80
2022-08-09T11:58:52.189Z,2.20
2022-08-09T11:59:52.522Z,2.90
2022-08-09T12:00:52.918Z,2.10
2022-08-09T12:02:16.246Z,2.60
2022-08-09T12:02:53.396Z,2.50
2022-08-09T12:03:57.461Z,4.50
2022-08-09T12:04:58.127Z,2.80
2022-08-09T12:05:52.283Z,3.00
2022-08-09T12:06:55.512Z,2.60
2022-08-09T12:07:54.762Z,2.90
2022-08-09T12:08:52.320Z,3.40
2022-08-09T12:09:52.334Z,3.40
2022-08-09T12:10:53.072Z,3.10
2022-08-09T12:12:03.520Z,2.70
2022-08-09T12:12:52.687Z,3.30
2022-08-09T12:14:09.123Z,3.60
2022-08-09T12:15:03.781Z,2.90
2022-08-09T12:15:52.790Z,3.20
2022-08-09T12:16:53.510Z,2.50
2022-08-09T12:17:53.542Z,2.70
2022-08-09T12:18:54.156Z,2.50
2022-08-09T12:19:52.466Z,3.10
2022-08-09T12:20:52.478Z,3.20
2022-08-09T12:21:52.492Z,2.70
2022-08-09T12:22:52.504Z,2.40
2022-08-09T12:24:06.365Z,3.10
2022-08-09T12:24:52.530Z,2.80
2022-08-09T12:25:52.543Z,2.60
2022-08-09T12:28:57.573Z,3.70
2022-08-09T12:29:10.987Z,4.20
2022-08-09T12:29:14.068Z,3.00
2022-08-09T12:30:00.181Z,2.40
2022-08-09T12:30:52.607Z,3.50
2022-08-09T12:32:01.615Z,2.80
2022-08-09T12:32:52.633Z,3.20
2022-08-09T12:34:00.762Z,2.70
2022-08-09T12:34:52.662Z,3.70
2022-08-09T12:35:52.673Z,4.00
2022-08-09T12:36:52.690Z,3.50
2022-08-09T12:37:53.793Z,3.00
2022-08-09T12:38:52.713Z,3.00
2022-08-09T12:39:52.724Z,2.80
2022-08-09T12:40:52.737Z,4.50
2022-08-09T12:41:52.752Z,3.00
2022-08-09T12:42:52.779Z,3.40
2022-08-09T12:44:05.911Z,3.30
2022-08-09T12:44:54.545Z,4.20
2022-08-09T12:46:00.296Z,3.60
2022-08-09T12:46:52.818Z,2.90
2022-08-09T12:47:52.829Z,3.40
2022-08-09T12:48:52.841Z,3.50
2022-08-09T12:49:53.267Z,3.40
2022-08-09T12:50:52.869Z,4.60
2022-08-09T12:52:02.006Z,2.70
2022-08-09T12:53:08.712Z,3.20
2022-08-09T12:53:55.143Z,3.70
2022-08-09T12:56:11.625Z,3.50
2022-08-09T12:56:11.853Z,3.90
2022-08-09T12:56:53.893Z,3.20
2022-08-09T12:57:52.960Z,2.90
2022-08-09T12:58:52.972Z,3.40
2022-08-09T12:59:57.652Z,3.40
2022-08-09T13:00:53.110Z,3.90
2022-08-09T13:01:53.074Z,3.00
2022-08-09T13:02:54.110Z,4.70
2022-08-09T13:03:58.833Z,3.70
2022-08-09T13:04:53.052Z,4.40
2022-08-09T13:06:13.279Z,2.70
2022-08-09T13:06:54.119Z,4.10
2022-08-09T13:07:53.090Z,4.00
2022-08-09T13:08:53.151Z,4.10
2022-08-09T13:09:56.018Z,3.30
2022-08-09T13:10:53.128Z,4.10
2022-08-09T13:12:01.995Z,4.90
2022-08-09T13:13:10.058Z,2.90
2022-08-09T13:14:37.330Z,3.40
2022-08-09T13:14:55.064Z,3.20
2022-08-09T13:15:53.195Z,4.10
2022-08-09T13:16:53.209Z,4.20
2022-08-09T13:18:03.880Z,3.90
2022-08-09T13:18:53.745Z,3.50
2022-08-09T13:20:08.588Z,4.40
2022-08-09T13:21:04.009Z,4.10
2022-08-09T13:22:36.095Z,3.60